Nationale Sud-Est (63) - B bis

Date : 12/04/2015

Place Nom Licence Catégorie Club Temps CN à J-60 Points Différence Nouveau CN
1 LASSALLE Pascal 1678 H45 0111RA 1:03:36 7094 7320 +226 7191
2 BODY J-Laurent 6948 H45 7305RA 1:04:37 7369 7205 -164 7328
3 WYMER Eddie 6523 H45 2508FC 1:04:41 7378 7197 -181 7395
4 BEAUVIR Yannick 3250 H45 3502BR 1:04:54 7130 7173 +43 7247
5 LEDUC Jean-Christophe 16631 H45 1905LI 1:05:42 6496 7086 +590 6612
6 DEMEUSE Pierre Emmanuel 30603 H45 2517FC 1:05:48 0 7075 7032
7 TOUSSAINT Stéphane 2009 H45 7703IF 1:06:06 7038 7043 +5 6702
8 RAUTURIER Christophe 3201 H45 7807IF 1:08:25 6506 6805 +299 6523
9 CLOUZEAU Gilles 16897 H45 1601PC 1:09:08 6568 6734 +166 6556
10 HABERKORN Chloé 10396 D20 2105BO 1:10:44 6524 6582 +58 6631
11 MATHIS Pascal 25063 H45 5407LO 1:11:58 6765 6469 -296 6826
12 PANNIER Pascal 12114 H45 7807IF 1:12:03 6423 6462 +39 6555
13 GIRARD Lucille 19689 D20 3705CE 1:12:14 5913 6445 +532 6175
14 BOULMIER Alain 9183 H45 0111RA 1:12:29 0 6423 6101
15 LE CAM Raphaël 19390 H45 3502BR 1:12:42 6298 6404 +106 6464
16 POIROT Delphine 15979 D20 8809LO 1:13:29 6629 6335 -294 6746
17 ELIAS Pierre 12231 H45 1307PZ 1:13:31 7292 6333 -959 7284
18 CLOUARD Lucile 8551 D20 7807IF 1:15:27 6010 6170 +160 6005
19 RODRIGUEZ Stéphane 5691 H45 4709AQ 1:15:36 6205 6158 -47 6322
20 PALCAU Valentin 2724 H45 2109BO 1:15:53 5966 6135 +169 6078
21 DENOUAL Jean-Luc 29350 H45 6008PI 1:17:34 4837 6002 +1165 5458
22 VERDENAL Benoit 6599 H45 5402LO 1:18:24 6864 5938 -926 6895
23 BEGNY Laurent 97 H45 2904BR 1:19:31 5707 5855 +148 5687
24 ANTIPEROVITCH Dmitri 29707 H45 7716IF 1:22:19 5292 5656 +364 5431
25 MARTIN Pascal 25117 H45 5402LO 1:23:10 5262 5598 +336 5323
26 COULIARD Laurent 2312 H45 4204RA 1:23:21 0 5586 5592
27 GRANGAUD Patrick 11960 H45 2606RA 1:23:55 5116 5548 +432 5207
28 LUTHRINGER Coline 10091 D20 8809LO 1:25:14 5177 5462 +285 5328
29 BORNARD Patrice 136 H45 7305RA 1:25:32 6460 5443 -1017 6547
30 BOUSSER Philippe 1396 H45 5703LO 1:26:02 4434 5411 +977 5414
31 ASTRADE Laurent 8203 H45 7305RA 1:26:04 6420 5409 -1011 6459
32 BORNARD Julie 9402 D20 7305RA 1:26:20 5440 5393 -47 5463
33 THONIER Bruno 9599 H45 7807IF 1:26:33 5742 5379 -363 5646
34 VANNIER Eric 2120 H45 7703IF 1:26:42 6886 5370 -1516 6627
35 BEAUVISAGE Christophe 2221 H45 7807IF 1:26:47 5297 5365 +68 5311
36 LAFANECHERE Thierry 6398 H45 4204RA 1:26:51 4730 5360 +630 5522
37 BOURGEOIS J-Damien 11225 H45 1905LI 1:27:43 5243 5307 +64 5792
38 MARCHER Wolfgang 13097 H45 1705PC 1:29:05 5304 5226 -78 5435
39 TOULIER Francois 13294 H45 6913RA 1:29:20 5485 5211 -274 5499
40 PROST Vincent 2021 H45 9404IF 1:29:28 4398 5204 +806 4836
41 LE GLAND Christophe 23205 H45 7404RA 1:31:03 5532 5113 -419 5621
42 SERRAND Alain 16981 H45 3105MP 1:31:32 5628 5086 -542 5539
43 GATINEAU David 26059 H45 1705PC 1:31:58 5301 5062 -239 5219
44 SUCHET Jean-Paul 4079 H45 4204RA 1:32:28 5165 5035 -130 5208
45 BOURGANEL Vincent 22429 H45 6913RA 1:32:36 5095 5028 -67 5069
46 ZIANS Raymund 9981 H45 4802LR 1:33:24 4830 4985 +155 4875
47 BOURDARIE Pascal 19544 H45 1303PZ 1:33:25 5592 4984 -608 5691
48 BODY Thierry 8457 H45 7305RA 1:34:13 6293 4941 -1352 6232
49 HUMMEL-AZAIS Margaux 18432 D20 2517FC 1:34:34 5446 4923 -523 5769
50 VILLATTE Didier 19833 H45 2407AQ 1:36:31 4885 4824 -61 5230
51 GENNARO Benoit 22688 H45 3810RA 1:38:07 4816 4745 -71 4688
52 GRANCOIN Marc 19674 H45 7807IF 1:38:13 5234 4740 -494 5205
53 FOL Thierry 16394 H45 3105MP 1:39:27 5147 4681 -466 5086
54 DUMAIL Jean-Francois 13302 H45 3319AQ 1:40:23 4581 4638 +57 4560
55 CHABANCE Jean Marc 22205 H45 4201RA 1:40:55 4574 4613 +39 4612
56 LECONTELLEC Bertrand 12487 H45 2906BR 1:41:12 5619 4600 -1019 5690
57 DENAIX Lou 7711 D20 7309RA 1:41:27 5098 4589 -509 4930
58 VERVIER Frédéric 12065 H45 7109BO 1:45:55 4409 4395 -14 4392
59 LEROUILLY Stéphane 22375 H45 1905LI 1:45:57 4805 4394 -411 5039
60 GRAFFIN Denis 29064 H45 2906BR 1:46:32 3590 4370 +780 4592
61 MILLERY Patrice 3214 H45 1905LI 1:46:38 5415 4366 -1049 5061
62 RAMBLIERE Frédéric 5708 H45 4601MP 1:51:05 5374 4191 -1183 5501
63 POINTEAU Fabien 4901 H45 2604RA 1:53:58 3906 4085 +179 3961
64 COUCHOUD Philippe 27872 H45 4203RA 1:54:47 4202 4056 -146 4503
65 GOURLAIN Vincent 18300 H45 6205NO 1:55:24 5256 4034 -1222 5268
66 GEYER Thierry 26132 H45 2407AQ 1:55:56 4648 4016 -632 4750
67 JACOTOT Christophe 13973 H45 2109BO 1:57:35 4241 3959 -282 4065
68 FRADET Patrick 26804 H45 1905LI 2:00:58 4771 3849 -922 4887
69 TRONCHON Valery 20798 H45 6906RA 2:01:33 4045 3830 -215 4045
70 VOLANT Stéphane 25229 H45 2904BR 2:03:42 5225 3764 -1461 5181
71 LAPERGUE Fabrice 29548 H45 3319AQ 2:08:15 3648 3630 -18 3807
72 LAURENT Bruno 25164 H45 6911RA 2:20:47 3307 3135
73 ZEITOUN Gilles 23694 H45 7720IF 2:21:00 3382 3302 -80 3316
74 DUTERAGE Christian 20384 H45 7807IF 2:21:44 3618 3285 -333 3502
75 LAVAL Christian 22372 H45 8106MP 2:21:56 4182 3280 -902 4279
76 BRUNAUD Yvan 18772 H45 2301LI 2:40:06 5197 2908 -2289 5140
77 CROCHU Christophe 22692 H45 2604RA 2:41:45 3146 2878 -268 3979
LONGERE Daniel 1139 H45 0615PZ pm 3263 0 3263
RIVOLLIER Isaline 22451 D20 4201RA pm 4361 0 4226
SUISSE christian 30330 H45 3308AQ pm 2259 0 2712
TREMOULET Joel 13825 H45 4601MP pm 5133 0 5101
ROBICHON Christophe 18706 H45 6911RA pm 4733 0 4679
TALON J-Michel 12316 H45 3308AQ pm 5608 0 5463
GAILLARD Fabien 22061 H45 1601PC pm 4610 0 4761